Time,TemperatureF,DewpointF,PressureIn,WindDirection,WindDirectionDegrees,WindSpeedMPH,WindSpeedGustMPH,Humidity,HourlyPrecipIn,Conditions,Clouds,dailyrainin,SoftwareType,DateUTC
2013-11-26 00:01:00,29.0,23.9,30.46,North,11,0.0,0.0,81,0.00,,,0.00,Wunderground v.1.15,2013-11-26 08:01:00,
2013-11-26 00:11:00,28.6,23.5,30.46,North,11,0.0,0.0,81,0.00,,,0.00,Wunderground v.1.15,2013-11-26 08:11:00,
2013-11-26 00:21:00,28.2,23.1,30.46,North,11,0.0,0.0,81,0.00,,,0.00,Wunderground v.1.15,2013-11-26 08:21:00,
2013-11-26 00:31:00,28.0,23.5,30.45,North,11,0.0,0.0,83,0.00,,,0.00,Wunderground v.1.15,2013-11-26 08:31:00,
2013-11-26 00:41:00,28.1,23.6,30.45,North,11,0.0,0.0,83,0.00,,,0.00,Wunderground v.1.15,2013-11-26 08:41:00,
2013-11-26 00:52:00,27.5,22.7,30.45,North,11,0.0,0.0,82,0.00,,,0.00,Wunderground v.1.15,2013-11-26 08:52:00,
2013-11-26 01:01:00,27.1,22.6,30.45,North,11,0.0,0.0,83,0.00,,,0.00,Wunderground v.1.15,2013-11-26 09:01:00,
2013-11-26 01:11:00,26.6,22.1,30.44,North,11,0.0,0.0,83,0.00,,,0.00,Wunderground v.1.15,2013-11-26 09:11:00,
2013-11-26 01:21:00,26.3,22.1,30.44,North,11,0.0,0.0,84,0.00,,,0.00,Wunderground v.1.15,2013-11-26 09:21:00,
2013-11-26 01:31:00,26.0,22.1,30.44,North,11,0.0,0.0,85,0.00,,,0.00,Wunderground v.1.15,2013-11-26 09:31:00,
2013-11-26 01:41:00,25.8,21.9,30.44,North,11,0.0,0.0,85,0.00,,,0.00,Wunderground v.1.15,2013-11-26 09:41:00,
2013-11-26 01:51:00,25.7,22.1,30.44,North,11,0.0,0.0,86,0.00,,,0.00,Wunderground v.1.15,2013-11-26 09:51:00,
2013-11-26 02:01:00,25.4,21.8,30.44,North,11,0.0,0.0,86,0.00,,,0.00,Wunderground v.1.15,2013-11-26 10:01:00,
2013-11-26 02:11:00,25.6,22.5,30.44,North,11,0.0,0.0,88,0.00,,,0.00,Wunderground v.1.15,2013-11-26 10:11:00,
2013-11-26 02:21:00,26.1,22.8,30.44,North,11,0.0,0.0,87,0.00,,,0.00,Wunderground v.1.15,2013-11-26 10:21:00,
2013-11-26 02:31:00,25.9,22.3,30.44,North,11,0.0,0.0,86,0.00,,,0.00,Wunderground v.1.15,2013-11-26 10:31:00,
2013-11-26 02:41:00,25.8,22.5,30.44,North,11,0.0,0.0,87,0.00,,,0.00,Wunderground v.1.15,2013-11-26 10:41:00,
2013-11-26 02:51:00,25.6,22.0,30.44,North,11,0.0,0.0,86,0.00,,,0.00,Wunderground v.1.15,2013-11-26 10:51:00,
2013-11-26 03:01:00,25.3,22.0,30.43,North,11,0.0,0.0,87,0.00,,,0.00,Wunderground v.1.15,2013-11-26 11:01:00,
2013-11-26 03:11:00,25.3,22.0,30.43,North,10,0.0,0.0,87,0.00,,,0.00,Wunderground v.1.15,2013-11-26 11:11:00,
2013-11-26 03:21:00,25.5,22.4,30.43,North,9,0.0,0.0,88,0.00,,,0.00,Wunderground v.1.15,2013-11-26 11:21:00,
2013-11-26 03:31:00,25.5,22.2,30.43,North,9,0.0,0.0,87,0.00,,,0.00,Wunderground v.1.15,2013-11-26 11:31:00,
2013-11-26 03:41:00,25.4,22.1,30.42,North,5,1.0,1.0,87,0.00,,,0.00,Wunderground v.1.15,2013-11-26 11:41:00,
2013-11-26 03:51:00,25.5,22.4,30.42,North,5,0.0,2.0,88,0.00,,,0.00,Wunderground v.1.15,2013-11-26 11:51:00,
2013-11-26 04:01:00,25.5,22.2,30.42,North,9,2.0,2.0,87,0.00,,,0.00,Wunderground v.1.15,2013-11-26 12:01:00,
2013-11-26 04:11:00,25.4,22.1,30.42,North,5,2.0,2.0,87,0.00,,,0.00,Wunderground v.1.15,2013-11-26 12:11:00,
2013-11-26 04:21:00,25.3,22.2,30.42,North,5,2.0,2.0,88,0.00,,,0.00,Wunderground v.1.15,2013-11-26 12:21:00,
2013-11-26 04:31:00,25.3,22.2,30.42,North,11,2.0,2.0,88,0.00,,,0.00,Wunderground v.1.15,2013-11-26 12:31:00,
2013-11-26 04:41:00,25.1,21.8,30.42,North,11,0.0,0.0,87,0.00,,,0.00,Wunderground v.1.15,2013-11-26 12:41:00,
2013-11-26 04:51:00,24.9,21.8,30.42,North,11,0.0,0.0,88,0.00,,,0.00,Wunderground v.1.15,2013-11-26 12:51:00,
2013-11-26 05:01:00,24.8,21.8,30.42,North,5,0.0,0.0,88,0.00,,,0.00,Wunderground v.1.15,2013-11-26 13:01:00,
2013-11-26 05:21:00,24.7,21.9,30.41,NNE,13,0.0,0.0,89,0.00,,,0.00,Wunderground v.1.15,2013-11-26 13:21:00,
2013-11-26 05:31:00,24.8,22.0,30.41,North,5,2.0,2.0,89,0.00,,,0.00,Wunderground v.1.15,2013-11-26 13:31:00,
2013-11-26 05:41:00,24.7,21.9,30.41,NNE,15,3.0,3.0,89,0.00,,,0.00,Wunderground v.1.15,2013-11-26 13:41:00,
2013-11-26 05:51:00,24.7,21.9,30.41,NNE,18,2.0,3.0,89,0.00,,,0.00,Wunderground v.1.15,2013-11-26 13:51:00,
2013-11-26 06:01:00,24.7,21.9,30.41,NNE,22,1.0,1.0,89,0.00,,,0.00,Wunderground v.1.15,2013-11-26 14:01:00,
2013-11-26 06:11:00,25.1,22.6,30.41,NNE,24,0.0,0.0,90,0.00,,,0.00,Wunderground v.1.15,2013-11-26 14:11:00,
2013-11-26 06:22:00,25.2,22.7,30.41,NE,52,0.0,0.0,90,0.00,,,0.00,Wunderground v.1.15,2013-11-26 14:22:00,
2013-11-26 06:31:00,25.3,22.5,30.41,NE,56,0.0,0.0,89,0.00,,,0.00,Wunderground v.1.15,2013-11-26 14:31:00,
2013-11-26 06:41:00,24.8,22.0,30.41,NE,34,1.0,3.0,89,0.00,,,0.00,Wunderground v.1.15,2013-11-26 14:41:00,
2013-11-26 06:51:00,24.6,22.1,30.41,NE,34,3.0,3.0,90,0.00,,,0.00,Wunderground v.1.15,2013-11-26 14:51:00,
2013-11-26 07:01:00,24.8,22.3,30.40,NE,43,3.0,3.0,90,0.00,,,0.00,Wunderground v.1.15,2013-11-26 15:01:00,
2013-11-26 07:11:00,24.6,22.1,30.40,NE,38,2.0,2.0,90,0.00,,,0.00,Wunderground v.1.15,2013-11-26 15:11:00,
2013-11-26 07:21:00,24.7,22.2,30.40,NE,38,1.0,2.0,90,0.00,,,0.00,Wunderground v.1.15,2013-11-26 15:21:00,
2013-11-26 07:31:00,24.8,22.3,30.40,NE,36,2.0,2.0,90,0.00,,,0.00,Wunderground v.1.15,2013-11-26 15:31:00,
2013-11-26 07:41:00,24.6,22.1,30.40,NE,35,1.0,2.0,90,0.00,,,0.00,Wunderground v.1.15,2013-11-26 15:41:00,
2013-11-26 07:51:00,24.7,22.4,30.41,NE,55,0.0,2.0,91,0.00,,,0.00,Wunderground v.1.15,2013-11-26 15:51:00,
2013-11-26 08:01:00,24.7,22.4,30.41,NE,45,1.0,1.0,91,0.00,,,0.00,Wunderground v.1.15,2013-11-26 16:01:00,
2013-11-26 08:11:00,24.8,22.5,30.41,NE,44,0.0,0.0,91,0.00,,,0.00,Wunderground v.1.15,2013-11-26 16:11:00,
2013-11-26 08:21:00,25.3,23.3,30.41,NE,54,0.0,1.0,92,0.00,,,0.00,Wunderground v.1.15,2013-11-26 16:21:00,
2013-11-26 08:31:00,26.2,24.2,30.40,ENE,63,1.0,1.0,92,0.00,,,0.00,Wunderground v.1.15,2013-11-26 16:31:00,
2013-11-26 08:42:00,27.1,24.8,30.41,NE,42,1.0,1.0,91,0.00,,,0.00,Wunderground v.1.15,2013-11-26 16:42:00,
2013-11-26 08:51:00,27.7,25.4,30.41,NE,56,0.0,2.0,91,0.00,,,0.00,Wunderground v.1.15,2013-11-26 16:51:00,
2013-11-26 09:01:00,28.2,25.6,30.41,ENE,58,1.0,1.0,90,0.00,,,0.00,Wunderground v.1.15,2013-11-26 17:01:00,
2013-11-26 09:11:00,28.5,25.9,30.41,NE,56,1.0,1.0,90,0.00,,,0.00,Wunderground v.1.15,2013-11-26 17:11:00,
2013-11-26 09:21:00,28.8,26.0,30.40,NE,55,1.0,1.0,89,0.00,,,0.00,Wunderground v.1.15,2013-11-26 17:21:00,
2013-11-26 09:31:00,29.0,25.9,30.40,NE,55,1.0,1.0,88,0.00,,,0.00,Wunderground v.1.15,2013-11-26 17:31:00,
2013-11-26 09:41:00,28.9,25.5,30.41,ENE,71,1.0,1.0,87,0.00,,,0.00,Wunderground v.1.15,2013-11-26 17:41:00,
2013-11-26 09:51:00,29.0,25.6,30.40,ENE,72,1.0,1.0,87,0.00,,,0.00,Wunderground v.1.15,2013-11-26 17:51:00,
2013-11-26 10:01:00,29.0,25.6,30.40,ENE,63,1.0,3.0,87,0.00,,,0.00,Wunderground v.1.15,2013-11-26 18:01:00,
2013-11-26 10:11:00,29.3,25.9,30.40,East,101,1.0,2.0,87,0.00,,,0.00,Wunderground v.1.15,2013-11-26 18:11:00,
2013-11-26 10:21:00,30.1,26.7,30.40,NE,53,1.0,3.0,87,0.00,,,0.00,Wunderground v.1.15,2013-11-26 18:21:00,
2013-11-26 10:31:00,30.7,27.0,30.39,ENE,74,1.0,3.0,86,0.00,,,0.00,Wunderground v.1.15,2013-11-26 18:31:00,
2013-11-26 10:41:00,31.0,27.3,30.39,East,98,0.0,0.0,86,0.00,,,0.00,Wunderground v.1.15,2013-11-26 18:41:00,
2013-11-26 10:51:00,31.4,27.4,30.38,East,98,0.0,0.0,85,0.00,,,0.00,Wunderground v.1.15,2013-11-26 18:51:00,
2013-11-26 11:01:00,31.8,27.8,30.37,ENE,65,1.0,1.0,85,0.00,,,0.00,Wunderground v.1.15,2013-11-26 19:01:00,
2013-11-26 11:11:00,32.3,28.0,30.38,ESE,119,1.0,1.0,84,0.00,,,0.00,Wunderground v.1.15,2013-11-26 19:11:00,
2013-11-26 11:21:00,32.9,28.6,30.37,ESE,108,0.0,0.0,84,0.00,,,0.00,Wunderground v.1.15,2013-11-26 19:21:00,
2013-11-26 11:31:00,33.5,28.9,30.37,ESE,107,0.0,3.0,83,0.00,,,0.00,Wunderground v.1.15,2013-11-26 19:31:00,
2013-11-26 11:41:00,34.1,29.2,30.37,SE,132,1.0,1.0,82,0.00,,,0.00,Wunderground v.1.15,2013-11-26 19:41:00,
2013-11-26 11:51:00,34.4,29.2,30.36,ESE,123,0.0,3.0,81,0.00,,,0.00,Wunderground v.1.15,2013-11-26 19:51:00,
2013-11-26 12:01:00,34.8,29.3,30.36,SSE,155,0.0,0.0,80,0.00,,,0.00,Wunderground v.1.15,2013-11-26 20:01:00,
2013-11-26 12:11:00,35.3,29.4,30.36,SSE,159,0.0,0.0,79,0.00,,,0.00,Wunderground v.1.15,2013-11-26 20:11:00,
2013-11-26 12:21:00,35.5,29.3,30.35,SSE,158,0.0,0.0,78,0.00,,,0.00,Wunderground v.1.15,2013-11-26 20:21:00,
2013-11-26 12:31:00,35.6,29.4,30.33,SSE,157,0.0,0.0,78,0.00,,,0.00,Wunderground v.1.15,2013-11-26 20:31:00,
2013-11-26 12:41:00,35.6,29.4,30.33,SE,136,0.0,0.0,78,0.00,,,0.00,Wunderground v.1.15,2013-11-26 20:41:00,
2013-11-26 12:51:00,35.8,29.3,30.33,SE,135,0.0,0.0,77,0.00,,,0.00,Wunderground v.1.15,2013-11-26 20:51:00,
2013-11-26 13:02:00,36.1,29.6,30.33,SE,133,0.0,0.0,77,0.00,,,0.00,Wunderground v.1.15,2013-11-26 21:02:00,
2013-11-26 13:11:00,36.2,29.4,30.32,SSE,150,0.0,0.0,76,0.00,,,0.00,Wunderground v.1.15,2013-11-26 21:11:00,
2013-11-26 13:21:00,36.4,29.6,30.32,South,170,0.0,0.0,76,0.00,,,0.00,Wunderground v.1.15,2013-11-26 21:21:00,
2013-11-26 13:31:00,36.6,29.4,30.32,SSE,164,0.0,0.0,75,0.00,,,0.00,Wunderground v.1.15,2013-11-26 21:31:00,
2013-11-26 13:41:00,36.8,29.3,30.32,SSE,165,0.0,0.0,74,0.00,,,0.00,Wunderground v.1.15,2013-11-26 21:41:00,
2013-11-26 13:51:00,37.1,29.2,30.31,SSE,155,0.0,0.0,73,0.00,,,0.00,Wunderground v.1.15,2013-11-26 21:51:00,
2013-11-26 14:01:00,37.4,29.5,30.31,SE,134,0.0,0.0,73,0.00,,,0.00,Wunderground v.1.15,2013-11-26 22:01:00,
2013-11-26 14:11:00,37.6,29.0,30.31,SE,134,0.0,0.0,71,0.00,,,0.00,Wunderground v.1.15,2013-11-26 22:11:00,
2013-11-26 14:21:00,37.6,29.4,30.31,ESE,118,0.0,0.0,72,0.00,,,0.00,Wunderground v.1.15,2013-11-26 22:21:00,
2013-11-26 14:31:00,37.3,29.1,30.31,SE,130,0.0,0.0,72,0.00,,,0.00,Wunderground v.1.15,2013-11-26 22:31:00,
2013-11-26 14:41:00,36.8,28.6,30.31,SE,130,0.0,0.0,72,0.00,,,0.00,Wunderground v.1.15,2013-11-26 22:41:00,
2013-11-26 14:51:00,36.6,28.8,30.31,SE,130,0.0,0.0,73,0.00,,,0.00,Wunderground v.1.15,2013-11-26 22:51:00,
2013-11-26 15:01:00,36.5,29.0,30.31,SE,130,0.0,0.0,74,0.00,,,0.00,Wunderground v.1.15,2013-11-26 23:01:00,
2013-11-26 15:11:00,36.4,28.9,30.31,SE,130,0.0,0.0,74,0.00,,,0.00,Wunderground v.1.15,2013-11-26 23:11:00,
2013-11-26 15:21:00,36.3,28.8,30.30,SE,130,0.0,0.0,74,0.00,,,0.00,Wunderground v.1.15,2013-11-26 23:21:00,
2013-11-26 15:31:00,36.1,28.6,30.31,SE,130,0.0,0.0,74,0.00,,,0.00,Wunderground v.1.15,2013-11-26 23:31:00,
2013-11-26 15:41:00,35.9,28.7,30.30,SE,130,0.0,0.0,75,0.00,,,0.00,Wunderground v.1.15,2013-11-26 23:41:00,
2013-11-26 15:51:00,35.6,28.5,30.30,SE,130,0.0,0.0,75,0.00,,,0.00,Wunderground v.1.15,2013-11-26 23:51:00,
2013-11-26 16:01:00,35.3,28.2,30.30,SE,130,0.0,0.0,75,0.00,,,0.00,Wunderground v.1.15,2013-11-27 00:01:00,
2013-11-26 16:11:00,34.9,28.1,30.30,SE,130,0.0,0.0,76,0.00,,,0.00,Wunderground v.1.15,2013-11-27 00:11:00,
2013-11-26 16:21:00,34.5,28.0,30.30,SE,130,0.0,0.0,77,0.00,,,0.00,Wunderground v.1.15,2013-11-27 00:21:00,
2013-11-26 16:31:00,34.1,28.0,30.30,SE,130,0.0,0.0,78,0.00,,,0.00,Wunderground v.1.15,2013-11-27 00:31:00,
2013-11-26 16:41:00,33.8,27.7,30.30,SE,130,0.0,0.0,78,0.00,,,0.00,Wunderground v.1.15,2013-11-27 00:41:00,
2013-11-26 16:51:00,33.6,27.8,30.30,SE,130,0.0,0.0,79,0.00,,,0.00,Wunderground v.1.15,2013-11-27 00:51:00,
2013-11-26 17:01:00,33.5,27.7,30.30,SE,130,0.0,0.0,79,0.00,,,0.00,Wunderground v.1.15,2013-11-27 01:01:00,
2013-11-26 17:11:00,33.3,27.2,30.30,SE,130,0.0,0.0,78,0.00,,,0.00,Wunderground v.1.15,2013-11-27 01:11:00,
2013-11-26 17:21:00,33.0,27.2,30.31,SSW,198,0.0,0.0,79,0.00,,,0.00,Wunderground v.1.15,2013-11-27 01:21:00,
2013-11-26 17:31:00,32.9,27.4,30.31,SW,219,0.0,0.0,80,0.00,,,0.00,Wunderground v.1.15,2013-11-27 01:31:00,
2013-11-26 17:41:00,32.8,27.3,30.31,SW,219,0.0,0.0,80,0.00,,,0.00,Wunderground v.1.15,2013-11-27 01:41:00,
2013-11-26 17:51:00,32.6,27.4,30.31,SW,219,0.0,0.0,81,0.00,,,0.00,Wunderground v.1.15,2013-11-27 01:51:00,
2013-11-26 18:01:00,32.2,26.4,30.30,SW,219,0.0,0.0,79,0.00,,,0.00,Wunderground v.1.15,2013-11-27 02:01:00,
2013-11-26 18:11:00,31.5,26.3,30.30,SW,219,0.0,0.0,81,0.00,,,0.00,Wunderground v.1.15,2013-11-27 02:11:00,
2013-11-26 18:21:00,31.2,26.3,30.30,SW,219,0.0,0.0,82,0.00,,,0.00,Wunderground v.1.15,2013-11-27 02:21:00,
2013-11-26 18:31:00,31.1,26.5,30.30,SW,219,0.0,0.0,83,0.00,,,0.00,Wunderground v.1.15,2013-11-27 02:31:00,
2013-11-26 18:41:00,30.9,26.3,30.30,West,280,0.0,0.0,83,0.00,,,0.00,Wunderground v.1.15,2013-11-27 02:41:00,
2013-11-26 18:51:00,30.5,26.0,30.30,WNW,290,0.0,0.0,83,0.00,,,0.00,Wunderground v.1.15,2013-11-27 02:51:00,
2013-11-26 19:01:00,30.2,25.7,30.30,WNW,290,0.0,0.0,83,0.00,,,0.00,Wunderground v.1.15,2013-11-27 03:01:00,
2013-11-26 19:11:00,29.6,25.1,30.30,WNW,291,0.0,0.0,83,0.00,,,0.00,Wunderground v.1.15,2013-11-27 03:11:00,
2013-11-26 19:21:00,29.5,25.5,30.30,NNW,330,1.0,3.0,85,0.00,,,0.00,Wunderground v.1.15,2013-11-27 03:21:00,
2013-11-26 19:31:00,29.2,25.3,30.30,NNW,331,3.0,3.0,85,0.00,,,0.00,Wunderground v.1.15,2013-11-27 03:31:00,
2013-11-26 19:41:00,28.8,25.1,30.30,NNW,332,3.0,3.0,86,0.00,,,0.00,Wunderground v.1.15,2013-11-27 03:41:00,
2013-11-26 19:52:00,28.7,25.3,30.30,NNW,336,2.0,2.0,87,0.00,,,0.00,Wunderground v.1.15,2013-11-27 03:52:00,
2013-11-26 20:01:00,28.7,25.0,30.30,NNW,339,0.0,2.0,86,0.00,,,0.00,Wunderground v.1.15,2013-11-27 04:01:00,
2013-11-26 20:12:00,28.5,24.8,30.30,NNW,348,2.0,2.0,86,0.00,,,0.00,Wunderground v.1.15,2013-11-27 04:12:00,
2013-11-26 20:21:00,28.6,25.2,30.30,NNW,342,2.0,2.0,87,0.00,,,0.00,Wunderground v.1.15,2013-11-27 04:21:00,
2013-11-26 20:31:00,28.5,24.8,30.30,NNW,342,0.0,0.0,86,0.00,,,0.00,Wunderground v.1.15,2013-11-27 04:31:00,
2013-11-26 20:41:00,28.4,25.0,30.30,NNW,342,0.0,0.0,87,0.00,,,0.00,Wunderground v.1.15,2013-11-27 04:41:00,
2013-11-26 20:51:00,28.3,24.9,30.30,NNW,342,0.0,0.0,87,0.00,,,0.00,Wunderground v.1.15,2013-11-27 04:51:00,
2013-11-26 21:01:00,28.4,25.6,30.30,NNW,342,0.0,0.0,89,0.00,,,0.00,Wunderground v.1.15,2013-11-27 05:01:00,
2013-11-26 21:11:00,28.3,24.9,30.30,NNW,342,0.0,0.0,87,0.00,,,0.00,Wunderground v.1.15,2013-11-27 05:11:00,
2013-11-26 21:21:00,29.0,26.2,30.29,NNW,342,0.0,0.0,89,0.00,,,0.00,Wunderground v.1.15,2013-11-27 05:21:00,
2013-11-26 21:31:00,29.6,26.8,30.29,North,5,0.0,0.0,89,0.00,,,0.00,Wunderground v.1.15,2013-11-27 05:31:00,
2013-11-26 21:41:00,29.5,26.1,30.29,North,5,0.0,0.0,87,0.00,,,0.00,Wunderground v.1.15,2013-11-27 05:41:00,
2013-11-26 21:51:00,29.0,25.3,30.29,North,5,0.0,0.0,86,0.00,,,0.00,Wunderground v.1.15,2013-11-27 05:51:00,
2013-11-26 22:01:00,28.7,25.0,30.29,North,5,0.0,0.0,86,0.00,,,0.00,Wunderground v.1.15,2013-11-27 06:01:00,
2013-11-26 22:11:00,28.3,24.9,30.29,NNE,13,0.0,0.0,87,0.00,,,0.00,Wunderground v.1.15,2013-11-27 06:11:00,
2013-11-26 22:21:00,27.9,24.5,30.29,North,5,0.0,0.0,87,0.00,,,0.00,Wunderground v.1.15,2013-11-27 06:21:00,
2013-11-26 22:31:00,27.7,24.6,30.29,North,9,0.0,0.0,88,0.00,,,0.00,Wunderground v.1.15,2013-11-27 06:31:00,
2013-11-26 22:41:00,27.7,24.9,30.29,North,5,1.0,1.0,89,0.00,,,0.00,Wunderground v.1.15,2013-11-27 06:41:00,
2013-11-26 23:01:00,27.8,24.7,30.29,North,5,0.0,0.0,88,0.00,,,0.00,Wunderground v.1.15,2013-11-27 07:01:00,
2013-11-26 23:11:00,27.7,24.6,30.29,North,5,0.0,0.0,88,0.00,,,0.00,Wunderground v.1.15,2013-11-27 07:11:00,
2013-11-26 23:21:00,27.5,24.4,30.29,North,5,0.0,0.0,88,0.00,,,0.00,Wunderground v.1.15,2013-11-27 07:21:00,
2013-11-26 23:31:00,27.3,24.2,30.29,North,5,1.0,1.0,88,0.00,,,0.00,Wunderground v.1.15,2013-11-27 07:31:00,
2013-11-26 23:41:00,27.2,24.1,30.29,North,5,2.0,3.0,88,0.00,,,0.00,Wunderground v.1.15,2013-11-27 07:41:00,
2013-11-26 23:51:00,27.0,24.2,30.28,NNE,14,3.0,3.0,89,0.00,,,0.00,Wunderground v.1.15,2013-11-27 07:51:00,